sensor_id;sensor_type;location;lat;lon;timestamp;pressure;altitude;pressure_sealevel;temperature;humidity
30875;BME280;17581;43.222;27.924;2022-07-09T00:01:23;100174.38;;;25.38;48.65
30875;BME280;17581;43.222;27.924;2022-07-09T00:03:49;100175.28;;;25.32;48.74
30875;BME280;17581;43.222;27.924;2022-07-09T00:06:16;100167.47;;;25.29;48.63
30875;BME280;17581;43.222;27.924;2022-07-09T00:08:41;100169.78;;;25.32;48.41
30875;BME280;17581;43.222;27.924;2022-07-09T00:11:07;100155.03;;;25.26;48.26
30875;BME280;17581;43.222;27.924;2022-07-09T00:13:32;100174.47;;;25.31;48.13
30875;BME280;17581;43.222;27.924;2022-07-09T00:15:58;100168.97;;;25.31;48.17
30875;BME280;17581;43.222;27.924;2022-07-09T00:18:23;100172.31;;;25.33;47.97
30875;BME280;17581;43.222;27.924;2022-07-09T00:20:49;100167.47;;;25.29;47.95
30875;BME280;17581;43.222;27.924;2022-07-09T00:23:14;100172.38;;;25.27;48.02
30875;BME280;17581;43.222;27.924;2022-07-09T00:25:39;100171.94;;;25.30;48.02
30875;BME280;17581;43.222;27.924;2022-07-09T00:28:05;100175.28;;;25.32;47.89
30875;BME280;17581;43.222;27.924;2022-07-09T00:30:30;100173.63;;;25.31;47.87
30875;BME280;17581;43.222;27.924;2022-07-09T00:32:56;100167.47;;;25.29;48.01
30875;BME280;17581;43.222;27.924;2022-07-09T00:35:22;100177.91;;;25.27;47.93
30875;BME280;17581;43.222;27.924;2022-07-09T00:37:47;100176.19;;;25.26;48.22
30875;BME280;17581;43.222;27.924;2022-07-09T00:40:13;100167.81;;;25.21;48.20
30875;BME280;17581;43.222;27.924;2022-07-09T00:42:38;100177.03;;;25.26;48.33
30875;BME280;17581;43.222;27.924;2022-07-09T00:45:04;100181.09;;;25.24;48.34
30875;BME280;17581;43.222;27.924;2022-07-09T00:47:30;100166.91;;;25.09;48.62
30875;BME280;17581;43.222;27.924;2022-07-09T00:49:56;100171.56;;;25.08;48.49
30875;BME280;17581;43.222;27.924;2022-07-09T00:52:22;100178.50;;;25.11;48.60
30875;BME280;17581;43.222;27.924;2022-07-09T00:54:48;100172.25;;;25.04;48.68
30875;BME280;17581;43.222;27.924;2022-07-09T00:57:15;100168.75;;;24.97;48.81
30875;BME280;17581;43.222;27.924;2022-07-09T00:59:41;100173.25;;;24.91;49.04
30875;BME280;17581;43.222;27.924;2022-07-09T01:02:08;100161.41;;;24.90;48.99
30875;BME280;17581;43.222;27.924;2022-07-09T01:04:34;100171.03;;;24.81;49.50
30875;BME280;17581;43.222;27.924;2022-07-09T01:06:59;100155.41;;;24.75;49.68
30875;BME280;17581;43.222;27.924;2022-07-09T01:09:25;100156.00;;;24.77;49.52
30875;BME280;17581;43.222;27.924;2022-07-09T01:11:52;100160.75;;;24.70;49.72
30875;BME280;17581;43.222;27.924;2022-07-09T01:14:18;100165.41;;;24.70;49.76
30875;BME280;17581;43.222;27.924;2022-07-09T01:16:43;100168.91;;;24.59;50.03
30875;BME280;17581;43.222;27.924;2022-07-09T01:19:09;100153.31;;;24.53;50.21
30875;BME280;17581;43.222;27.924;2022-07-09T01:21:34;100164.69;;;24.56;50.21
30875;BME280;17581;43.222;27.924;2022-07-09T01:24:00;100152.50;;;24.52;50.30
30875;BME280;17581;43.222;27.924;2022-07-09T01:26:26;100159.34;;;24.43;50.46
30875;BME280;17581;43.222;27.924;2022-07-09T01:31:17;100156.81;;;24.42;50.44
30875;BME280;17581;43.222;27.924;2022-07-09T01:33:43;100159.81;;;24.40;50.64
30875;BME280;17581;43.222;27.924;2022-07-09T01:36:10;100145.28;;;24.33;50.55
30875;BME280;17581;43.222;27.924;2022-07-09T01:38:36;100153.06;;;24.36;50.39
30875;BME280;17581;43.222;27.924;2022-07-09T01:41:01;100145.72;;;24.30;50.47
30875;BME280;17581;43.222;27.924;2022-07-09T01:43:27;100131.19;;;24.23;50.40
30875;BME280;17581;43.222;27.924;2022-07-09T01:45:53;100150.16;;;24.31;50.36
30875;BME280;17581;43.222;27.924;2022-07-09T01:48:18;100147.41;;;24.31;50.46
30875;BME280;17581;43.222;27.924;2022-07-09T01:50:44;100135.84;;;24.22;50.38
30875;BME280;17581;43.222;27.924;2022-07-09T01:53:10;100147.22;;;24.26;50.34
30875;BME280;17581;43.222;27.924;2022-07-09T01:55:35;100150.03;;;24.19;50.26
30875;BME280;17581;43.222;27.924;2022-07-09T01:58:01;100137.59;;;24.10;50.40
30875;BME280;17581;43.222;27.924;2022-07-09T02:00:27;100142.03;;;24.18;50.44
30875;BME280;17581;43.222;27.924;2022-07-09T02:02:56;100139.50;;;24.10;50.48
30875;BME280;17581;43.222;27.924;2022-07-09T02:05:22;100137.59;;;24.10;50.59
30875;BME280;17581;43.222;27.924;2022-07-09T02:07:48;100120.56;;;24.02;50.60
30875;BME280;17581;43.222;27.924;2022-07-09T02:10:14;100133.19;;;24.09;50.40
30875;BME280;17581;43.222;27.924;2022-07-09T02:12:40;100126.06;;;24.02;50.69
30875;BME280;17581;43.222;27.924;2022-07-09T02:15:06;100125.22;;;24.01;50.66
30875;BME280;17581;43.222;27.924;2022-07-09T02:17:33;100129.81;;;24.07;50.91
30875;BME280;17581;43.222;27.924;2022-07-09T02:19:59;100113.56;;;24.06;50.86
30875;BME280;17581;43.222;27.924;2022-07-09T02:22:24;100127.19;;;23.94;51.17
30875;BME280;17581;43.222;27.924;2022-07-09T02:24:50;100129.09;;;23.94;51.16
30875;BME280;17581;43.222;27.924;2022-07-09T02:27:15;100124.81;;;23.98;51.25
30875;BME280;17581;43.222;27.924;2022-07-09T02:29:41;100132.44;;;23.96;51.64
30875;BME280;17581;43.222;27.924;2022-07-09T02:32:07;100141.13;;;23.93;51.52
30875;BME280;17581;43.222;27.924;2022-07-09T02:34:32;100098.97;;;23.80;51.77
30875;BME280;17581;43.222;27.924;2022-07-09T02:36:58;100130.59;;;23.90;51.84
30875;BME280;17581;43.222;27.924;2022-07-09T02:39:23;100125.09;;;23.90;52.30
30875;BME280;17581;43.222;27.924;2022-07-09T02:41:49;100131.22;;;23.92;52.20
30875;BME280;17581;43.222;27.924;2022-07-09T02:44:15;100144.78;;;23.87;52.30
30875;BME280;17581;43.222;27.924;2022-07-09T02:46:41;100146.28;;;23.82;52.42
30875;BME280;17581;43.222;27.924;2022-07-09T02:49:06;100142.72;;;23.82;52.64
30875;BME280;17581;43.222;27.924;2022-07-09T02:51:31;100134.69;;;23.80;52.72
30875;BME280;17581;43.222;27.924;2022-07-09T02:53:57;100138.69;;;23.84;52.60
30875;BME280;17581;43.222;27.924;2022-07-09T02:56:22;100130.25;;;23.79;52.96
30875;BME280;17581;43.222;27.924;2022-07-09T02:58:48;100130.69;;;23.76;52.95
30875;BME280;17581;43.222;27.924;2022-07-09T03:01:13;100145.91;;;23.79;53.33
30875;BME280;17581;43.222;27.924;2022-07-09T03:03:39;100134.91;;;23.79;53.26
30875;BME280;17581;43.222;27.924;2022-07-09T03:06:04;100136.19;;;23.76;53.21
30875;BME280;17581;43.222;27.924;2022-07-09T03:08:31;100148.00;;;23.77;53.65
30875;BME280;17581;43.222;27.924;2022-07-09T03:10:56;100139.78;;;23.77;53.46
30875;BME280;17581;43.222;27.924;2022-07-09T03:13:22;100135.34;;;23.76;53.79
30875;BME280;17581;43.222;27.924;2022-07-09T03:15:47;100133.03;;;23.73;53.88
30875;BME280;17581;43.222;27.924;2022-07-09T03:18:13;100138.75;;;23.71;53.81
30875;BME280;17581;43.222;27.924;2022-07-09T03:20:38;100125.31;;;23.63;53.98
30875;BME280;17581;43.222;27.924;2022-07-09T03:23:04;100132.47;;;23.64;53.99
30875;BME280;17581;43.222;27.924;2022-07-09T03:25:30;100132.91;;;23.61;54.39
30875;BME280;17581;43.222;27.924;2022-07-09T03:27:55;100126.13;;;23.64;54.52
30875;BME280;17581;43.222;27.924;2022-07-09T03:30:21;100131.25;;;23.60;54.39
30875;BME280;17581;43.222;27.924;2022-07-09T03:32:46;100139.47;;;23.60;54.53
30875;BME280;17581;43.222;27.924;2022-07-09T03:35:11;100139.28;;;23.55;54.78
30875;BME280;17581;43.222;27.924;2022-07-09T03:37:37;100140.16;;;23.49;55.12
30875;BME280;17581;43.222;27.924;2022-07-09T03:40:03;100138.50;;;23.48;54.96
30875;BME280;17581;43.222;27.924;2022-07-09T03:42:29;100141.44;;;23.47;55.40
30875;BME280;17581;43.222;27.924;2022-07-09T03:44:55;100147.38;;;23.44;55.39
30875;BME280;17581;43.222;27.924;2022-07-09T03:47:20;100134.09;;;23.34;55.37
30875;BME280;17581;43.222;27.924;2022-07-09T03:49:46;100157.94;;;23.40;55.50
30875;BME280;17581;43.222;27.924;2022-07-09T03:52:11;100145.50;;;23.31;55.48
30875;BME280;17581;43.222;27.924;2022-07-09T03:54:37;100155.63;;;23.37;55.47
30875;BME280;17581;43.222;27.924;2022-07-09T03:57:02;100154.78;;;23.43;55.34
30875;BME280;17581;43.222;27.924;2022-07-09T03:59:27;100158.59;;;23.42;55.08
30875;BME280;17581;43.222;27.924;2022-07-09T04:01:53;100170.84;;;23.40;54.84
30875;BME280;17581;43.222;27.924;2022-07-09T04:04:18;100158.34;;;23.37;54.97
30875;BME280;17581;43.222;27.924;2022-07-09T04:06:44;100146.63;;;23.23;55.04
30875;BME280;17581;43.222;27.924;2022-07-09T04:09:09;100169.78;;;23.34;55.33
30875;BME280;17581;43.222;27.924;2022-07-09T04:11:35;100165.81;;;23.30;55.34
30875;BME280;17581;43.222;27.924;2022-07-09T04:14:01;100164.16;;;23.16;55.44
30875;BME280;17581;43.222;27.924;2022-07-09T04:16:27;100164.78;;;23.18;55.38
30875;BME280;17581;43.222;27.924;2022-07-09T04:18:53;100170.50;;;23.16;55.70
30875;BME280;17581;43.222;27.924;2022-07-09T04:21:19;100176.19;;;23.15;55.67
30875;BME280;17581;43.222;27.924;2022-07-09T04:23:48;100172.63;;;23.14;55.68
30875;BME280;17581;43.222;27.924;2022-07-09T04:26:15;100178.94;;;23.15;55.29
30875;BME280;17581;43.222;27.924;2022-07-09T04:28:41;100163.16;;;23.04;55.65
30875;BME280;17581;43.222;27.924;2022-07-09T04:31:06;100180.88;;;23.08;55.57
30875;BME280;17581;43.222;27.924;2022-07-09T04:33:31;100181.06;;;23.06;55.76
30875;BME280;17581;43.222;27.924;2022-07-09T04:35:57;100174.13;;;23.10;55.38
30875;BME280;17581;43.222;27.924;2022-07-09T04:38:23;100174.97;;;23.11;55.47
30875;BME280;17581;43.222;27.924;2022-07-09T04:40:48;100173.06;;;23.11;55.20
30875;BME280;17581;43.222;27.924;2022-07-09T04:43:14;100175.41;;;23.08;55.43
30875;BME280;17581;43.222;27.924;2022-07-09T04:45:39;100178.75;;;23.10;55.08
30875;BME280;17581;43.222;27.924;2022-07-09T04:48:05;100166.72;;;23.17;54.79
30875;BME280;17581;43.222;27.924;2022-07-09T04:50:30;100157.63;;;23.17;54.88
30875;BME280;17581;43.222;27.924;2022-07-09T04:52:56;100151.25;;;23.23;54.45
30875;BME280;17581;43.222;27.924;2022-07-09T04:55:21;100184.75;;;23.45;54.37
30875;BME280;17581;43.222;27.924;2022-07-09T04:57:47;100169.31;;;23.50;53.89
30875;BME280;17581;43.222;27.924;2022-07-09T05:00:13;100176.06;;;23.54;53.83
30875;BME280;17581;43.222;27.924;2022-07-09T05:02:42;100140.59;;;23.46;53.41
30875;BME280;17581;43.222;27.924;2022-07-09T05:05:08;100156.13;;;23.65;53.45
30875;BME280;17581;43.222;27.924;2022-07-09T05:07:34;100160.91;;;23.76;53.33
30875;BME280;17581;43.222;27.924;2022-07-09T05:10:00;100150.09;;;23.81;53.17
30875;BME280;17581;43.222;27.924;2022-07-09T05:12:27;100140.78;;;23.82;52.74
30875;BME280;17581;43.222;27.924;2022-07-09T05:14:53;100152.81;;;23.88;53.23
30875;BME280;17581;43.222;27.924;2022-07-09T05:17:20;100139.25;;;23.93;53.00
30875;BME280;17581;43.222;27.924;2022-07-09T05:19:45;100149.88;;;24.08;52.89
30875;BME280;17581;43.222;27.924;2022-07-09T05:22:10;100152.81;;;24.13;52.61
30875;BME280;17581;43.222;27.924;2022-07-09T05:24:36;100155.91;;;24.23;51.98
30875;BME280;17581;43.222;27.924;2022-07-09T05:27:02;100146.63;;;24.24;52.34
30875;BME280;17581;43.222;27.924;2022-07-09T05:29:28;100155.22;;;24.34;52.09
30875;BME280;17581;43.222;27.924;2022-07-09T05:31:54;100158.91;;;24.46;51.68
30875;BME280;17581;43.222;27.924;2022-07-09T05:34:19;100153.00;;;24.43;50.96
30875;BME280;17581;43.222;27.924;2022-07-09T05:36:45;100151.66;;;24.52;50.95
30875;BME280;17581;43.222;27.924;2022-07-09T05:39:11;100147.34;;;24.56;50.65
30875;BME280;17581;43.222;27.924;2022-07-09T05:41:36;100144.31;;;24.64;50.43
30875;BME280;17581;43.222;27.924;2022-07-09T05:44:02;100159.53;;;24.66;50.39
30875;BME280;17581;43.222;27.924;2022-07-09T05:46:28;100137.53;;;24.66;49.99
30875;BME280;17581;43.222;27.924;2022-07-09T05:48:55;100108.56;;;24.64;49.72
30875;BME280;17581;43.222;27.924;2022-07-09T05:51:23;100151.91;;;24.86;49.45
30875;BME280;17581;43.222;27.924;2022-07-09T05:53:50;100124.56;;;24.92;49.03
30875;BME280;17581;43.222;27.924;2022-07-09T05:56:15;100114.50;;;24.85;49.14
30875;BME280;17581;43.222;27.924;2022-07-09T05:58:41;100102.09;;;24.76;48.91
30875;BME280;17581;43.222;27.924;2022-07-09T06:01:07;100117.69;;;25.01;48.47
30875;BME280;17581;43.222;27.924;2022-07-09T06:03:34;100113.25;;;25.00;48.46
30875;BME280;17581;43.222;27.924;2022-07-09T06:06:00;100141.03;;;25.28;48.45
30875;BME280;17581;43.222;27.924;2022-07-09T06:08:25;100126.56;;;25.32;47.66
30875;BME280;17581;43.222;27.924;2022-07-09T06:10:51;100124.81;;;25.38;47.56
30875;BME280;17581;43.222;27.924;2022-07-09T06:13:17;100117.53;;;25.43;47.68
30875;BME280;17581;43.222;27.924;2022-07-09T06:15:43;100124.22;;;25.48;47.81
30875;BME280;17581;43.222;27.924;2022-07-09T06:18:08;100118.56;;;25.61;47.52
30875;BME280;17581;43.222;27.924;2022-07-09T06:20:34;100109.97;;;25.69;46.98
30875;BME280;17581;43.222;27.924;2022-07-09T06:23:00;100114.31;;;25.76;46.58
30875;BME280;17581;43.222;27.924;2022-07-09T06:25:25;100104.25;;;25.82;47.04
30875;BME280;17581;43.222;27.924;2022-07-09T06:27:51;100103.66;;;25.91;46.34
30875;BME280;17581;43.222;27.924;2022-07-09T06:30:16;100086.28;;;25.79;46.17
30875;BME280;17581;43.222;27.924;2022-07-09T06:32:42;100106.06;;;25.99;46.05
30875;BME280;17581;43.222;27.924;2022-07-09T06:35:08;100087.50;;;25.95;46.24
30875;BME280;17581;43.222;27.924;2022-07-09T06:37:33;100093.53;;;26.15;45.83
30875;BME280;17581;43.222;27.924;2022-07-09T06:39:59;100069.16;;;26.01;45.37
30875;BME280;17581;43.222;27.924;2022-07-09T06:42:25;100093.91;;;26.19;45.26
30875;BME280;17581;43.222;27.924;2022-07-09T06:44:50;100085.75;;;26.24;45.58
30875;BME280;17581;43.222;27.924;2022-07-09T06:47:16;100093.78;;;26.37;45.45
30875;BME280;17581;43.222;27.924;2022-07-09T06:49:42;100078.44;;;26.41;45.48
30875;BME280;17581;43.222;27.924;2022-07-09T06:52:08;100085.97;;;26.57;44.99
30875;BME280;17581;43.222;27.924;2022-07-09T06:54:34;100076.47;;;26.65;44.91
30875;BME280;17581;43.222;27.924;2022-07-09T06:57:01;100077.56;;;26.75;44.67
30875;BME280;17581;43.222;27.924;2022-07-09T06:59:26;100087.88;;;26.80;43.67
30875;BME280;17581;43.222;27.924;2022-07-09T07:01:52;100073.19;;;26.79;43.69
30875;BME280;17581;43.222;27.924;2022-07-09T07:04:18;100078.88;;;26.84;43.55
30875;BME280;17581;43.222;27.924;2022-07-09T07:06:45;100076.69;;;26.86;43.86
30875;BME280;17581;43.222;27.924;2022-07-09T07:09:14;100108.13;;;26.97;43.79
30875;BME280;17581;43.222;27.924;2022-07-09T07:11:40;100092.88;;;26.94;43.77
30875;BME280;17581;43.222;27.924;2022-07-09T07:14:05;100079.31;;;26.93;43.89
30875;BME280;17581;43.222;27.924;2022-07-09T07:16:31;100088.69;;;26.92;43.98
30875;BME280;17581;43.222;27.924;2022-07-09T07:18:56;100105.00;;;26.93;43.79
30875;BME280;17581;43.222;27.924;2022-07-09T07:21:22;100095.28;;;26.79;43.77
30875;BME280;17581;43.222;27.924;2022-07-09T07:23:47;100092.91;;;26.71;43.80
30875;BME280;17581;43.222;27.924;2022-07-09T07:26:13;100096.72;;;26.70;44.03
30875;BME280;17581;43.222;27.924;2022-07-09T07:28:38;100099.25;;;26.72;43.66
30875;BME280;17581;43.222;27.924;2022-07-09T07:31:04;100094.09;;;26.64;43.72
30875;BME280;17581;43.222;27.924;2022-07-09T07:33:29;100085.34;;;26.67;44.20
30875;BME280;17581;43.222;27.924;2022-07-09T07:35:54;100093.84;;;26.77;43.95
30875;BME280;17581;43.222;27.924;2022-07-09T07:38:20;100084.72;;;26.76;43.90
30875;BME280;17581;43.222;27.924;2022-07-09T07:40:45;100080.91;;;26.77;43.53
30875;BME280;17581;43.222;27.924;2022-07-09T07:43:11;100076.59;;;26.81;44.18
30875;BME280;17581;43.222;27.924;2022-07-09T07:45:37;100094.78;;;27.06;42.89
30875;BME280;17581;43.222;27.924;2022-07-09T07:48:03;100095.84;;;27.04;43.34
30875;BME280;17581;43.222;27.924;2022-07-09T07:50:29;100101.31;;;27.16;42.98
30875;BME280;17581;43.222;27.924;2022-07-09T07:52:55;100120.78;;;27.21;42.85
30875;BME280;17581;43.222;27.924;2022-07-09T07:55:22;100113.78;;;27.30;43.09
30875;BME280;17581;43.222;27.924;2022-07-09T07:57:48;100101.63;;;27.43;43.18
30875;BME280;17581;43.222;27.924;2022-07-09T08:00:13;100103.28;;;27.44;42.59
30875;BME280;17581;43.222;27.924;2022-07-09T08:02:39;100109.66;;;27.44;42.70
30875;BME280;17581;43.222;27.924;2022-07-09T08:05:05;100104.97;;;27.45;42.82
30875;BME280;17581;43.222;27.924;2022-07-09T08:07:31;100101.75;;;27.36;43.22
30875;BME280;17581;43.222;27.924;2022-07-09T08:09:57;100110.25;;;27.35;43.31
30875;BME280;17581;43.222;27.924;2022-07-09T08:12:23;100108.19;;;27.42;43.38
30875;BME280;17581;43.222;27.924;2022-07-09T08:14:48;100117.78;;;27.51;43.02
30875;BME280;17581;43.222;27.924;2022-07-09T08:17:14;100097.47;;;27.57;42.98
30875;BME280;17581;43.222;27.924;2022-07-09T08:19:39;100125.88;;;27.69;42.28
30875;BME280;17581;43.222;27.924;2022-07-09T08:22:04;100093.69;;;27.63;42.55
30875;BME280;17581;43.222;27.924;2022-07-09T08:24:30;100086.91;;;27.71;42.44
30875;BME280;17581;43.222;27.924;2022-07-09T08:26:55;100115.16;;;27.89;42.37
30875;BME280;17581;43.222;27.924;2022-07-09T08:29:22;100113.75;;;27.87;42.00
30875;BME280;17581;43.222;27.924;2022-07-09T08:31:47;100120.59;;;27.84;42.14
30875;BME280;17581;43.222;27.924;2022-07-09T08:34:15;100119.25;;;27.87;41.97
30875;BME280;17581;43.222;27.924;2022-07-09T08:36:40;100119.09;;;27.93;42.21
30875;BME280;17581;43.222;27.924;2022-07-09T08:39:05;100123.56;;;27.94;42.42
30875;BME280;17581;43.222;27.924;2022-07-09T08:41:31;100087.88;;;27.76;42.76
30875;BME280;17581;43.222;27.924;2022-07-09T08:43:56;100115.75;;;27.91;42.47
30875;BME280;17581;43.222;27.924;2022-07-09T08:46:22;100122.91;;;28.04;42.43
30875;BME280;17581;43.222;27.924;2022-07-09T08:48:48;100119.41;;;28.08;41.99
30875;BME280;17581;43.222;27.924;2022-07-09T08:51:14;100106.06;;;28.05;42.00
30875;BME280;17581;43.222;27.924;2022-07-09T08:53:42;100100.66;;;27.99;42.48
30875;BME280;17581;43.222;27.924;2022-07-09T08:56:09;100114.72;;;28.09;42.33
30875;BME280;17581;43.222;27.924;2022-07-09T08:58:35;100117.88;;;28.18;42.44
30875;BME280;17581;43.222;27.924;2022-07-09T09:01:00;100113.59;;;28.27;42.06
30875;BME280;17581;43.222;27.924;2022-07-09T09:03:26;100124.66;;;28.27;42.27
30875;BME280;17581;43.222;27.924;2022-07-09T09:06:03;100114.78;;;28.31;42.24
30875;BME280;17581;43.222;27.924;2022-07-09T09:08:36;100116.19;;;28.50;41.63
30875;BME280;17581;43.222;27.924;2022-07-09T09:11:07;100117.59;;;28.69;41.43
30875;BME280;17581;43.222;27.924;2022-07-09T09:13:43;100115.28;;;28.83;41.58
30875;BME280;17581;43.222;27.924;2022-07-09T09:16:10;100093.47;;;28.86;41.16
30875;BME280;17581;43.222;27.924;2022-07-09T09:18:46;100103.25;;;28.94;40.77
30875;BME280;17581;43.222;27.924;2022-07-09T09:21:13;100111.75;;;29.09;40.68
30875;BME280;17581;43.222;27.924;2022-07-09T09:23:44;100107.31;;;29.30;40.46
30875;BME280;17581;43.222;27.924;2022-07-09T09:26:18;100111.41;;;29.49;40.03
30875;BME280;17581;43.222;27.924;2022-07-09T09:28:51;100110.69;;;29.58;38.89
30875;BME280;17581;43.222;27.924;2022-07-09T09:31:36;100107.94;;;29.63;38.77
30875;BME280;17581;43.222;27.924;2022-07-09T09:36:35;100106.50;;;29.56;38.60
30875;BME280;17581;43.222;27.924;2022-07-09T09:41:33;100119.34;;;29.67;39.07
30875;BME280;17581;43.222;27.924;2022-07-09T09:44:05;100102.81;;;29.77;39.23
30875;BME280;17581;43.222;27.924;2022-07-09T09:46:34;100094.38;;;29.89;38.91
30875;BME280;17581;43.222;27.924;2022-07-09T09:48:59;100096.13;;;30.00;38.66
30875;BME280;17581;43.222;27.924;2022-07-09T09:51:27;100086.47;;;30.07;37.91
30875;BME280;17581;43.222;27.924;2022-07-09T09:53:56;100094.28;;;30.15;37.95
30875;BME280;17581;43.222;27.924;2022-07-09T09:56:24;100091.91;;;30.29;37.42
30875;BME280;17581;43.222;27.924;2022-07-09T09:58:51;100091.22;;;30.44;36.94
30875;BME280;17581;43.222;27.924;2022-07-09T10:01:17;100068.34;;;30.37;37.26
30875;BME280;17581;43.222;27.924;2022-07-09T10:03:43;100091.59;;;30.57;36.42
30875;BME280;17581;43.222;27.924;2022-07-09T10:06:09;100079.09;;;30.60;37.02
30875;BME280;17581;43.222;27.924;2022-07-09T10:08:34;100093.00;;;30.65;36.05
30875;BME280;17581;43.222;27.924;2022-07-09T10:11:00;100085.78;;;30.64;36.34
30875;BME280;17581;43.222;27.924;2022-07-09T10:13:26;100073.78;;;30.58;36.52
30875;BME280;17581;43.222;27.924;2022-07-09T10:15:54;100081.06;;;30.64;36.27
30875;BME280;17581;43.222;27.924;2022-07-09T10:18:20;100079.41;;;30.68;36.06
30875;BME280;17581;43.222;27.924;2022-07-09T10:20:45;100075.47;;;30.54;35.83
30875;BME280;17581;43.222;27.924;2022-07-09T10:23:24;100064.28;;;30.39;36.00
30875;BME280;17581;43.222;27.924;2022-07-09T10:25:50;100091.84;;;30.56;36.38
30875;BME280;17581;43.222;27.924;2022-07-09T10:28:19;100092.91;;;30.50;35.96
30875;BME280;17581;43.222;27.924;2022-07-09T10:30:46;100087.88;;;30.47;35.43
30875;BME280;17581;43.222;27.924;2022-07-09T10:33:32;100082.31;;;30.42;35.58
30875;BME280;17581;43.222;27.924;2022-07-09T10:36:13;100077.06;;;30.45;35.32
30875;BME280;17581;43.222;27.924;2022-07-09T10:38:39;100090.97;;;30.50;35.48
30875;BME280;17581;43.222;27.924;2022-07-09T10:41:05;100074.09;;;30.57;36.15
30875;BME280;17581;43.222;27.924;2022-07-09T10:43:49;100074.09;;;30.57;35.64
30875;BME280;17581;43.222;27.924;2022-07-09T10:46:15;100076.63;;;30.68;35.75
30875;BME280;17581;43.222;27.924;2022-07-09T10:48:43;100083.03;;;30.69;35.15
30875;BME280;17581;43.222;27.924;2022-07-09T10:51:18;100077.00;;;30.82;35.55
30875;BME280;17581;43.222;27.924;2022-07-09T10:53:44;100070.94;;;30.95;34.90
30875;BME280;17581;43.222;27.924;2022-07-09T10:56:10;100067.97;;;31.17;35.44
30875;BME280;17581;43.222;27.924;2022-07-09T10:58:36;100061.88;;;31.20;34.64
30875;BME280;17581;43.222;27.924;2022-07-09T11:01:02;100051.00;;;31.13;34.56
30875;BME280;17581;43.222;27.924;2022-07-09T11:03:32;100078.28;;;31.26;34.81
30875;BME280;17581;43.222;27.924;2022-07-09T11:05:58;100062.16;;;31.23;34.42
30875;BME280;17581;43.222;27.924;2022-07-09T11:08:24;100067.72;;;31.18;34.33
30875;BME280;17581;43.222;27.924;2022-07-09T11:10:49;100063.84;;;31.35;34.03
30875;BME280;17581;43.222;27.924;2022-07-09T11:13:15;100054.69;;;31.39;33.92
30875;BME280;17581;43.222;27.924;2022-07-09T11:15:40;100043.09;;;31.52;33.52
30875;BME280;17581;43.222;27.924;2022-07-09T11:18:11;100059.78;;;31.72;33.96
30875;BME280;17581;43.222;27.924;2022-07-09T11:20:54;100060.63;;;31.88;33.58
30875;BME280;17581;43.222;27.924;2022-07-09T11:23:20;100043.38;;;32.06;33.65
30875;BME280;17581;43.222;27.924;2022-07-09T11:25:47;100036.97;;;32.16;33.13
30875;BME280;17581;43.222;27.924;2022-07-09T11:28:23;100053.34;;;32.38;32.72
30875;BME280;17581;43.222;27.924;2022-07-09T11:30:59;100048.59;;;32.43;32.84
30875;BME280;17581;43.222;27.924;2022-07-09T11:33:25;100039.16;;;32.44;32.61
30875;BME280;17581;43.222;27.924;2022-07-09T11:35:50;100038.81;;;32.61;32.26
30875;BME280;17581;43.222;27.924;2022-07-09T11:38:16;100041.84;;;32.69;32.38
30875;BME280;17581;43.222;27.924;2022-07-09T11:40:41;100047.44;;;32.74;31.89
30875;BME280;17581;43.222;27.924;2022-07-09T11:43:13;100047.41;;;32.79;31.67
30875;BME280;17581;43.222;27.924;2022-07-09T11:45:50;100039.34;;;32.78;31.37
30875;BME280;17581;43.222;27.924;2022-07-09T11:48:16;100033.78;;;32.78;31.84
30875;BME280;17581;43.222;27.924;2022-07-09T11:50:44;100033.81;;;32.63;32.00
30875;BME280;17581;43.222;27.924;2022-07-09T11:53:22;100038.25;;;32.64;32.00
30875;BME280;17581;43.222;27.924;2022-07-09T11:56:02;100016.53;;;32.71;32.19
30875;BME280;17581;43.222;27.924;2022-07-09T11:58:29;100023.44;;;32.78;31.98
30875;BME280;17581;43.222;27.924;2022-07-09T12:00:55;100019.28;;;32.76;32.83
30875;BME280;17581;43.222;27.924;2022-07-09T12:03:28;100008.66;;;32.83;32.02
30875;BME280;17581;43.222;27.924;2022-07-09T12:05:55;100023.13;;;32.90;32.05
30875;BME280;17581;43.222;27.924;2022-07-09T12:08:31;100018.94;;;32.87;31.51
30875;BME280;17581;43.222;27.924;2022-07-09T12:10:57;100005.25;;;32.91;31.61
30875;BME280;17581;43.222;27.924;2022-07-09T12:13:23;99992.53;;;32.80;31.29
30875;BME280;17581;43.222;27.924;2022-07-09T12:15:48;100005.94;;;32.68;32.09
30875;BME280;17581;43.222;27.924;2022-07-09T12:18:14;99986.16;;;32.69;32.02
30875;BME280;17581;43.222;27.924;2022-07-09T12:20:40;99986.91;;;32.85;32.55
30875;BME280;17581;43.222;27.924;2022-07-09T12:23:06;99999.34;;;33.03;31.91
30875;BME280;17581;43.222;27.924;2022-07-09T12:25:31;99991.28;;;33.11;31.86
30875;BME280;17581;43.222;27.924;2022-07-09T12:27:57;100002.91;;;33.18;31.21
30875;BME280;17581;43.222;27.924;2022-07-09T12:30:22;99992.06;;;33.17;31.42
30875;BME280;17581;43.222;27.924;2022-07-09T12:32:48;99989.44;;;33.30;31.22
30875;BME280;17581;43.222;27.924;2022-07-09T12:35:13;99987.22;;;33.32;30.86
30875;BME280;17581;43.222;27.924;2022-07-09T12:37:39;99986.00;;;33.44;30.93
30875;BME280;17581;43.222;27.924;2022-07-09T12:40:07;99972.38;;;33.42;30.51
30875;BME280;17581;43.222;27.924;2022-07-09T12:42:33;99987.69;;;33.45;30.64
30875;BME280;17581;43.222;27.924;2022-07-09T12:44:59;99944.81;;;33.35;30.69